createdAt,value
2022-09-13T00:01:33.215Z,100879.09
2022-09-13T00:04:35.844Z,100874.38
2022-09-13T00:07:39.880Z,100862.22
2022-09-13T00:10:43.734Z,100863.59
2022-09-13T00:13:46.914Z,100865.84
2022-09-13T00:16:49.502Z,100853.59
2022-09-13T00:19:52.277Z,100853.91
2022-09-13T00:22:56.168Z,100839.06
2022-09-13T00:26:04.992Z,100828.84
2022-09-13T00:29:07.623Z,100816.97
2022-09-13T00:32:10.340Z,100810.50
2022-09-13T00:35:13.005Z,100811.53
2022-09-13T00:38:17.066Z,100818.44
2022-09-13T00:41:21.600Z,100800.56
2022-09-13T00:44:49.944Z,100796.88
2022-09-13T00:47:57.376Z,100791.44
2022-09-13T00:51:00.395Z,100776.69
2022-09-13T00:54:06.104Z,100784.16
2022-09-13T00:57:10.712Z,100786.13
2022-09-13T01:00:17.626Z,100784.72
2022-09-13T01:03:22.798Z,100779.19
2022-09-13T01:06:31.016Z,100772.06
2022-09-13T01:09:39.880Z,100763.78
2022-09-13T01:12:48.500Z,100763.50
2022-09-13T01:15:51.932Z,100768.19
2022-09-13T01:18:54.669Z,100767.91
2022-09-13T01:22:30.160Z,100773.72
2022-09-13T01:26:06.084Z,100767.09
2022-09-13T01:29:38.591Z,100757.72
2022-09-13T01:33:07.371Z,100767.97
2022-09-13T01:36:34.178Z,100756.16
2022-09-13T01:39:51.477Z,100748.91
2022-09-13T01:43:09.046Z,100755.78
2022-09-13T01:46:19.121Z,100756.84
2022-09-13T01:49:31.580Z,100743.03
2022-09-13T01:52:41.820Z,100748.56
2022-09-13T01:55:49.518Z,100733.84
2022-09-13T01:58:57.881Z,100734.72
2022-09-13T02:02:05.187Z,100724.56
2022-09-13T02:05:15.490Z,100712.63
2022-09-13T02:08:23.038Z,100722.03
2022-09-13T02:11:25.985Z,100728.97
2022-09-13T02:14:32.743Z,100713.72
2022-09-13T02:17:39.440Z,100712.94
2022-09-13T02:20:48.472Z,100704.56
2022-09-13T02:23:54.373Z,100698.84
2022-09-13T02:27:01.275Z,100694.53
2022-09-13T02:30:07.771Z,100690.38
2022-09-13T02:33:13.408Z,100674.38
2022-09-13T02:36:21.893Z,100671.31
2022-09-13T02:39:28.334Z,100672.44
2022-09-13T02:42:36.633Z,100665.47
2022-09-13T02:45:48.486Z,100666.88
2022-09-13T02:48:58.759Z,100674.59
2022-09-13T02:52:11.410Z,100661.66
2022-09-13T02:55:20.091Z,100664.41
2022-09-13T02:58:29.984Z,100652.25
2022-09-13T03:01:33.336Z,100646.78
2022-09-13T03:04:36.548Z,100631.28
2022-09-13T03:07:40.503Z,100629.03
2022-09-13T03:10:53.244Z,100625.44
2022-09-13T03:14:13.891Z,100628.81
2022-09-13T03:17:32.910Z,100625.44
2022-09-13T03:20:44.719Z,100622.06
2022-09-13T03:24:01.208Z,100615.00
2022-09-13T03:27:17.540Z,100603.47
2022-09-13T03:30:20.856Z,100611.47
2022-09-13T03:33:31.107Z,100607.88
2022-09-13T03:36:38.679Z,100610.63
2022-09-13T03:39:48.529Z,100612.28
2022-09-13T03:42:57.107Z,100612.22
2022-09-13T03:46:05.066Z,100603.59
2022-09-13T03:49:12.154Z,100599.13
2022-09-13T03:52:14.975Z,100605.25
2022-09-13T03:55:21.160Z,100598.78
2022-09-13T03:58:26.699Z,100585.72
2022-09-13T04:01:29.563Z,100570.78
2022-09-13T04:04:32.737Z,100567.25
2022-09-13T04:07:35.318Z,100583.69
2022-09-13T04:10:39.467Z,100570.78
2022-09-13T04:13:42.334Z,100571.94
2022-09-13T04:16:45.054Z,100564.78
2022-09-13T04:19:47.811Z,100557.06
2022-09-13T04:22:53.788Z,100557.06
2022-09-13T04:26:02.734Z,100554.34
2022-09-13T04:29:05.534Z,100546.06
2022-09-13T04:32:09.209Z,100541.31
2022-09-13T04:35:12.809Z,100540.00
2022-09-13T04:38:15.391Z,100539.97
2022-09-13T04:41:19.476Z,100539.97
2022-09-13T04:44:24.425Z,100533.03
2022-09-13T04:47:27.427Z,100534.84
2022-09-13T04:50:30.015Z,100532.22
2022-09-13T04:53:32.790Z,100527.28
2022-09-13T04:56:36.731Z,100527.19
2022-09-13T04:59:39.335Z,100520.28
2022-09-13T05:02:41.910Z,100522.38
2022-09-13T05:05:44.583Z,100515.63
2022-09-13T05:08:52.259Z,100516.41
2022-09-13T05:11:56.604Z,100483.75
2022-09-13T05:14:59.287Z,100497.16
2022-09-13T05:18:01.839Z,100504.16
2022-09-13T05:21:06.406Z,100508.53
2022-09-13T05:24:09.473Z,100509.16
2022-09-13T05:27:13.577Z,100513.97
2022-09-13T05:30:16.298Z,100509.88
2022-09-13T05:33:19.009Z,100512.84
2022-09-13T05:36:21.729Z,100513.50
2022-09-13T05:39:48.528Z,100514.16
2022-09-13T05:42:48.740Z,100523.09
2022-09-13T05:45:51.646Z,100516.19
2022-09-13T05:48:54.211Z,100531.66
2022-09-13T05:51:56.871Z,100532.47
2022-09-13T05:54:59.405Z,100541.50
2022-09-13T05:58:03.905Z,100536.00
2022-09-13T06:01:07.188Z,100541.03
2022-09-13T06:04:12.729Z,100542.22
2022-09-13T06:07:15.288Z,100542.16
2022-09-13T06:10:18.104Z,100546.63
2022-09-13T06:13:22.268Z,100548.44
2022-09-13T06:16:25.005Z,100549.84
2022-09-13T06:19:27.606Z,100551.66
2022-09-13T06:22:33.390Z,100544.78
2022-09-13T06:25:36.021Z,100547.31
2022-09-13T06:28:40.934Z,100535.16
2022-09-13T06:31:45.324Z,100548.66
2022-09-13T06:34:48.300Z,100555.47
2022-09-13T06:37:51.173Z,100545.84
2022-09-13T06:41:00.953Z,100531.63
2022-09-13T06:44:05.567Z,100515.59
2022-09-13T06:47:08.178Z,100511.44
2022-09-13T06:50:11.177Z,100509.97
2022-09-13T06:53:13.860Z,100504.97
2022-09-13T06:56:18.017Z,100492.16
2022-09-13T06:59:22.226Z,100493.72
2022-09-13T07:02:25.811Z,100483.69
2022-09-13T07:05:28.419Z,100484.69
2022-09-13T07:08:32.727Z,100471.16
2022-09-13T07:11:38.089Z,100472.88
2022-09-13T07:14:42.132Z,100476.09
2022-09-13T07:17:44.670Z,100472.88
2022-09-13T07:20:47.472Z,100476.84
2022-09-13T07:23:50.680Z,100472.06
2022-09-13T07:26:53.431Z,100471.72
2022-09-13T07:29:57.810Z,100474.69
2022-09-13T07:33:00.502Z,100479.97
2022-09-13T07:36:06.422Z,100479.78
2022-09-13T07:39:14.362Z,100481.97
2022-09-13T07:42:18.277Z,100472.84
2022-09-13T07:45:23.983Z,100476.84
2022-09-13T07:48:39.813Z,100468.88
2022-09-13T07:51:43.955Z,100488.00
2022-09-13T07:54:47.815Z,100484.13
2022-09-13T07:57:50.427Z,100485.59
2022-09-13T08:00:54.411Z,100475.66
2022-09-13T08:03:58.869Z,100474.97
2022-09-13T08:07:01.480Z,100472.63
2022-09-13T08:10:04.388Z,100476.22
2022-09-13T08:13:06.935Z,100478.16
2022-09-13T08:16:11.705Z,100484.31
2022-09-13T08:19:17.962Z,100483.31
2022-09-13T08:22:21.113Z,100488.66
2022-09-13T08:25:23.658Z,100484.53
2022-09-13T08:28:27.809Z,100498.91
2022-09-13T08:31:32.516Z,100498.19
2022-09-13T08:34:35.186Z,100508.13
2022-09-13T08:37:37.752Z,100505.56
2022-09-13T08:40:44.300Z,100499.88
2022-09-13T08:43:51.658Z,100489.75
2022-09-13T08:47:05.563Z,100487.66
2022-09-13T08:50:15.640Z,100488.97
2022-09-13T08:53:21.918Z,100492.44
2022-09-13T08:56:31.337Z,100481.31
2022-09-13T08:59:47.752Z,100473.22
2022-09-13T09:03:03.621Z,100471.25
2022-09-13T09:06:13.751Z,100457.28
2022-09-13T09:09:20.488Z,100455.09
2022-09-13T09:12:34.230Z,100462.19
2022-09-13T09:15:41.341Z,100467.25
2022-09-13T09:18:48.975Z,100462.13
2022-09-13T09:21:52.290Z,100453.53
2022-09-13T09:24:58.251Z,100457.22
2022-09-13T09:28:00.987Z,100461.41
2022-09-13T09:31:12.461Z,100453.13
2022-09-13T09:34:28.537Z,100470.53
2022-09-13T09:37:34.468Z,100455.53
2022-09-13T09:40:38.885Z,100477.44
2022-09-13T09:43:47.105Z,100473.31
2022-09-13T09:46:57.021Z,100462.81
2022-09-13T09:50:10.821Z,100461.50
2022-09-13T09:53:18.025Z,100457.13
2022-09-13T09:56:24.379Z,100448.84
2022-09-13T09:59:29.314Z,100441.22
2022-09-13T10:02:32.943Z,100445.97
2022-09-13T10:05:37.473Z,100451.16
2022-09-13T10:08:43.276Z,100445.69
2022-09-13T10:11:50.090Z,100447.91
2022-09-13T10:14:59.334Z,100443.22
2022-09-13T10:18:16.780Z,100442.28
2022-09-13T10:21:30.088Z,100434.16
2022-09-13T10:24:34.010Z,100439.72
2022-09-13T10:27:42.672Z,100446.94
2022-09-13T10:30:49.439Z,100440.03
2022-09-13T10:34:00.323Z,100432.81
2022-09-13T10:37:11.736Z,100438.41
2022-09-13T10:40:20.670Z,100423.97
2022-09-13T10:43:25.822Z,100420.19
2022-09-13T10:46:32.156Z,100423.75
2022-09-13T10:49:49.429Z,100414.28
2022-09-13T10:52:54.792Z,100425.19
2022-09-13T10:55:57.532Z,100424.25
2022-09-13T10:59:21.436Z,100417.56
2022-09-13T11:02:44.415Z,100431.56
2022-09-13T11:05:56.543Z,100429.13
2022-09-13T11:09:11.539Z,100435.84
2022-09-13T11:12:20.312Z,100427.34
2022-09-13T11:15:37.298Z,100425.38
2022-09-13T11:18:59.923Z,100425.53
2022-09-13T11:22:20.369Z,100423.75
2022-09-13T11:25:45.359Z,100423.75
2022-09-13T11:28:57.174Z,100420.78
2022-09-13T11:32:16.663Z,100428.16
2022-09-13T11:35:35.247Z,100427.31
2022-09-13T11:38:51.505Z,100428.59
2022-09-13T11:42:06.418Z,100418.63
2022-09-13T11:45:30.488Z,100412.88
2022-09-13T11:49:01.222Z,100413.72
2022-09-13T11:52:16.156Z,100419.47
2022-09-13T11:55:24.730Z,100426.53
2022-09-13T11:58:35.051Z,100424.84
2022-09-13T12:01:46.047Z,100424.34
2022-09-13T12:05:11.320Z,100436.31
2022-09-13T12:08:20.960Z,100430.03
2022-09-13T12:11:27.695Z,100427.91
2022-09-13T12:18:18.413Z,100419.28
2022-09-13T12:21:24.056Z,100428.59
2022-09-13T12:24:36.042Z,100419.13
2022-09-13T12:27:44.157Z,100427.81
2022-09-13T12:30:53.402Z,100424.34
2022-09-13T12:33:56.984Z,100420.25
2022-09-13T12:37:15.363Z,100430.25
2022-09-13T12:40:39.667Z,100412.38
2022-09-13T12:44:12.627Z,100423.34
2022-09-13T12:47:54.941Z,100415.00
2022-09-13T12:51:09.861Z,100415.50
2022-09-13T12:54:45.117Z,100413.06
2022-09-13T13:01:10.829Z,100410.41
2022-09-13T13:04:18.602Z,100401.72
2022-09-13T13:07:24.644Z,100395.56
2022-09-13T13:10:31.722Z,100406.38
2022-09-13T13:13:37.472Z,100414.22
2022-09-13T13:16:41.850Z,100400.16
2022-09-13T13:19:45.100Z,100393.09
2022-09-13T13:22:52.335Z,100390.44
2022-09-13T13:26:10.067Z,100385.69
2022-09-13T13:29:16.544Z,100376.78
2022-09-13T13:32:19.218Z,100369.25
2022-09-13T13:38:58.453Z,100363.09
2022-09-13T13:42:03.142Z,100369.28
2022-09-13T13:45:16.310Z,100364.50
2022-09-13T13:48:36.881Z,100362.88
2022-09-13T13:51:39.457Z,100362.06
2022-09-13T13:55:02.382Z,100359.19
2022-09-13T13:58:16.585Z,100363.25
2022-09-13T14:01:24.226Z,100367.53
2022-09-13T14:05:01.582Z,100366.56
2022-09-13T14:08:39.018Z,100361.03
2022-09-13T14:11:55.468Z,100361.72
2022-09-13T14:15:22.279Z,100356.06
2022-09-13T14:18:57.462Z,100359.94
2022-09-13T14:22:12.813Z,100363.69
2022-09-13T14:25:24.227Z,100375.88
2022-09-13T14:28:29.453Z,100380.69
2022-09-13T14:31:32.154Z,100375.06
2022-09-13T14:34:38.231Z,100363.78
2022-09-13T14:37:40.872Z,100368.25
2022-09-13T14:40:49.269Z,100362.16
2022-09-13T14:43:53.257Z,100365.09
2022-09-13T14:47:05.425Z,100362.03
2022-09-13T14:50:14.884Z,100351.38
2022-09-13T14:53:21.885Z,100358.75
2022-09-13T14:56:32.309Z,100350.34
2022-09-13T14:59:43.654Z,100342.47
2022-09-13T15:02:50.972Z,100348.69
2022-09-13T15:05:56.996Z,100336.19
2022-09-13T15:09:13.930Z,100332.81
2022-09-13T15:12:25.978Z,100330.50
2022-09-13T15:15:36.851Z,100328.41
2022-09-13T15:18:39.534Z,100325.94
2022-09-13T15:21:42.122Z,100320.72
2022-09-13T15:24:47.544Z,100321.75
2022-09-13T15:27:50.844Z,100319.13
2022-09-13T15:30:57.269Z,100311.41
2022-09-13T15:34:13.739Z,100312.50
2022-09-13T15:37:17.087Z,100310.03
2022-09-13T15:40:22.428Z,100310.69
2022-09-13T15:43:25.374Z,100310.63
2022-09-13T15:46:29.651Z,100315.56
2022-09-13T15:49:34.425Z,100309.28
2022-09-13T15:52:36.993Z,100321.06
2022-09-13T15:55:40.669Z,100321.19
2022-09-13T15:58:43.248Z,100319.16
2022-09-13T16:01:49.437Z,100313.28
2022-09-13T16:04:52.626Z,100315.38
2022-09-13T16:07:58.906Z,100314.47
2022-09-13T16:11:01.492Z,100298.91
2022-09-13T16:14:04.284Z,100310.69
2022-09-13T16:17:12.441Z,100301.22
2022-09-13T16:20:16.415Z,100302.34
2022-09-13T16:23:18.974Z,100299.75
2022-09-13T16:26:21.719Z,100290.75
2022-09-13T16:29:24.405Z,100291.72
2022-09-13T16:32:28.495Z,100295.00
2022-09-13T16:35:32.929Z,100301.41
2022-09-13T16:38:35.626Z,100297.78
2022-09-13T16:41:40.163Z,100295.50
2022-09-13T16:44:43.166Z,100300.28
2022-09-13T16:47:47.366Z,100302.38
2022-09-13T16:50:49.958Z,100306.81
2022-09-13T16:53:54.090Z,100295.22
2022-09-13T16:56:57.466Z,100302.06
2022-09-13T17:00:00.293Z,100305.84
2022-09-13T17:03:04.301Z,100296.81
2022-09-13T17:06:09.624Z,100300.28
2022-09-13T17:09:12.253Z,100300.56
2022-09-13T17:12:15.474Z,100301.06
2022-09-13T17:15:18.136Z,100310.56
2022-09-13T17:18:22.227Z,100307.44
2022-09-13T17:21:25.791Z,100317.69
2022-09-13T17:24:30.558Z,100320.09
2022-09-13T17:27:33.192Z,100316.66
2022-09-13T17:30:35.794Z,100313.41
2022-09-13T17:33:39.814Z,100311.09
2022-09-13T17:36:43.194Z,100322.03
2022-09-13T17:39:46.325Z,100316.47
2022-09-13T17:42:50.112Z,100316.56
2022-09-13T17:45:52.846Z,100316.09
2022-09-13T17:48:59.669Z,100317.19
2022-09-13T17:52:03.773Z,100321.91
2022-09-13T17:55:07.090Z,100324.38
2022-09-13T17:58:09.789Z,100313.09
2022-09-13T18:01:12.562Z,100325.06
2022-09-13T18:04:18.025Z,100326.34
2022-09-13T18:07:20.901Z,100331.06
2022-09-13T18:10:45.549Z,100327.78
2022-09-13T18:13:46.852Z,100332.38
2022-09-13T18:16:55.392Z,100325.66
2022-09-13T18:19:59.425Z,100331.47
2022-09-13T18:23:01.985Z,100325.91
2022-09-13T18:26:10.623Z,100331.25
2022-09-13T18:29:14.980Z,100340.38
2022-09-13T18:32:17.708Z,100338.50
2022-09-13T18:35:21.632Z,100335.81
2022-09-13T18:38:24.227Z,100340.34
2022-09-13T18:41:28.758Z,100338.22
2022-09-13T18:44:33.745Z,100336.19
2022-09-13T18:47:36.572Z,100354.59
2022-09-13T18:50:44.331Z,100353.06
2022-09-13T18:53:47.733Z,100349.94
2022-09-13T18:56:51.116Z,100347.66
2022-09-13T18:59:53.653Z,100348.41
2022-09-13T19:03:11.411Z,100352.31
2022-09-13T19:06:17.509Z,100356.03
2022-09-13T19:09:22.821Z,100349.16
2022-09-13T19:12:25.372Z,100351.44
2022-09-13T19:15:27.975Z,100353.66
2022-09-13T19:18:31.058Z,100354.63
2022-09-13T19:21:35.216Z,100357.19
2022-09-13T19:24:38.274Z,100351.75
2022-09-13T19:27:41.247Z,100357.09
2022-09-13T19:30:47.952Z,100353.09
2022-09-13T19:33:51.617Z,100365.72
2022-09-13T19:36:58.062Z,100362.53
2022-09-13T19:40:01.044Z,100364.09
2022-09-13T19:43:03.828Z,100353.72
2022-09-13T19:46:08.683Z,100351.91
2022-09-13T19:49:16.028Z,100357.84
2022-09-13T19:52:20.955Z,100365.75
2022-09-13T19:55:23.628Z,100363.38
2022-09-13T19:58:26.875Z,100364.59
2022-09-13T20:01:32.042Z,100365.22
2022-09-13T20:04:35.737Z,100361.41
2022-09-13T20:07:40.557Z,100361.50
2022-09-13T20:10:43.291Z,100365.50
2022-09-13T20:13:48.137Z,100368.38
2022-09-13T20:16:50.856Z,100380.06
2022-09-13T20:19:57.732Z,100373.25
2022-09-13T20:23:01.714Z,100369.25
2022-09-13T20:26:06.140Z,100361.59
2022-09-13T20:29:09.386Z,100367.75
2022-09-13T20:32:12.160Z,100360.84
2022-09-13T20:35:14.888Z,100363.09
2022-09-13T20:38:19.225Z,100364.03
2022-09-13T20:41:22.856Z,100368.53
2022-09-13T20:44:25.669Z,100362.22
2022-09-13T20:47:29.072Z,100367.34
2022-09-13T20:50:31.737Z,100363.50
2022-09-13T20:53:35.921Z,100356.66
2022-09-13T20:56:38.602Z,100356.34
2022-09-13T20:59:41.168Z,100346.72
2022-09-13T21:02:43.940Z,100343.13
2022-09-13T21:05:46.526Z,100347.31
2022-09-13T21:08:50.466Z,100351.22
2022-09-13T21:11:53.284Z,100348.22
2022-09-13T21:14:56.045Z,100346.56
2022-09-13T21:17:58.632Z,100360.16
2022-09-13T21:21:02.761Z,100365.19
2022-09-13T21:24:09.578Z,100357.78
2022-09-13T21:27:12.377Z,100363.09
2022-09-13T21:30:15.766Z,100364.00
2022-09-13T21:33:18.466Z,100362.44
2022-09-13T21:36:21.072Z,100361.06
2022-09-13T21:39:25.341Z,100366.06
2022-09-13T21:42:28.112Z,100370.84
2022-09-13T21:45:31.619Z,100370.09
2022-09-13T21:48:35.880Z,100370.38
2022-09-13T21:51:40.116Z,100364.63
2022-09-13T21:54:44.200Z,100368.81
2022-09-13T21:57:46.746Z,100364.72
2022-09-13T22:00:49.518Z,100365.56
2022-09-13T22:03:53.505Z,100371.16
2022-09-13T22:06:56.643Z,100367.56
2022-09-13T22:10:00.548Z,100370.69
2022-09-13T22:13:07.167Z,100369.63
2022-09-13T22:16:10.979Z,100363.88
2022-09-13T22:19:16.046Z,100369.75
2022-09-13T22:22:18.637Z,100369.22
2022-09-13T22:25:23.200Z,100367.38
2022-09-13T22:28:25.774Z,100364.34
2022-09-13T22:31:30.099Z,100366.06
2022-09-13T22:34:34.870Z,100371.88
2022-09-13T22:37:37.710Z,100366.94
2022-09-13T22:40:47.871Z,100374.16
2022-09-13T22:43:50.837Z,100377.28
2022-09-13T22:46:53.466Z,100375.66
2022-09-13T22:49:56.154Z,100378.47
2022-09-13T22:52:58.718Z,100373.84
2022-09-13T22:56:06.015Z,100367.81
2022-09-13T22:59:09.991Z,100374.19
2022-09-13T23:02:12.674Z,100372.28
2022-09-13T23:05:15.317Z,100378.69
2022-09-13T23:08:18.198Z,100383.41
2022-09-13T23:11:24.494Z,100372.97
2022-09-13T23:14:27.294Z,100381.56
2022-09-13T23:17:30.273Z,100379.44
2022-09-13T23:20:33.296Z,100374.75
2022-09-13T23:23:36.337Z,100384.13
2022-09-13T23:26:40.765Z,100375.91
2022-09-13T23:29:43.605Z,100381.47
2022-09-13T23:32:48.340Z,100378.44
2022-09-13T23:35:51.604Z,100374.34
2022-09-13T23:38:55.819Z,100380.97
2022-09-13T23:42:00.008Z,100375.16
2022-09-13T23:45:03.014Z,100376.56
2022-09-13T23:48:07.275Z,100372.44
2022-09-13T23:51:12.355Z,100376.03
2022-09-13T23:54:16.523Z,100377.44
2022-09-13T23:57:20.617Z,100376.09
